createdAt,value
2023-01-03T00:01:21.517Z,100275.00
2023-01-03T00:03:50.131Z,100275.00
2023-01-03T00:06:19.951Z,100282.00
2023-01-03T00:08:48.346Z,100284.00
2023-01-03T00:11:19.841Z,100286.00
2023-01-03T00:13:46.748Z,100294.00
2023-01-03T00:16:20.516Z,100304.00
2023-01-03T00:18:48.547Z,100302.00
2023-01-03T00:21:16.381Z,100303.00
2023-01-03T00:23:44.245Z,100308.00
2023-01-03T00:26:12.837Z,100302.00
2023-01-03T00:28:40.680Z,100314.00
2023-01-03T00:31:10.183Z,100312.00
2023-01-03T00:33:41.753Z,100305.00
2023-01-03T00:36:11.311Z,100316.00
2023-01-03T00:38:39.965Z,100321.00
2023-01-03T00:41:11.028Z,100321.00
2023-01-03T00:43:40.572Z,100292.00
2023-01-03T00:46:09.359Z,100312.00
2023-01-03T00:48:39.408Z,100310.00
2023-01-03T00:51:08.912Z,100319.00
2023-01-03T00:53:38.737Z,100323.00
2023-01-03T00:56:09.797Z,100334.00
2023-01-03T00:58:38.717Z,100326.00
2023-01-03T01:01:07.966Z,100326.00
2023-01-03T01:03:37.706Z,100340.00
2023-01-03T01:06:15.679Z,100342.00
2023-01-03T01:08:44.366Z,100337.00
2023-01-03T01:11:15.302Z,100354.00
2023-01-03T01:13:45.264Z,100359.00
2023-01-03T01:16:17.051Z,100368.00
2023-01-03T01:18:47.499Z,100362.00
2023-01-03T01:21:19.200Z,100370.00
2023-01-03T01:23:47.883Z,100369.00
2023-01-03T01:26:17.981Z,100379.00
2023-01-03T01:28:46.482Z,100373.00
2023-01-03T01:31:19.898Z,100399.00
2023-01-03T01:33:47.992Z,100395.00
2023-01-03T01:36:22.305Z,100401.00
2023-01-03T01:38:55.668Z,100397.00
2023-01-03T01:41:37.900Z,100395.00
2023-01-03T01:44:23.785Z,100408.00
2023-01-03T01:46:53.097Z,100409.00
2023-01-03T01:49:25.979Z,100420.00
2023-01-03T01:51:55.299Z,100420.00
2023-01-03T01:54:23.158Z,100420.00
2023-01-03T01:56:54.469Z,100419.00
2023-01-03T01:59:22.359Z,100423.00
2023-01-03T02:01:52.584Z,100412.00
2023-01-03T02:04:26.143Z,100428.00
2023-01-03T02:06:57.357Z,100428.00
2023-01-03T02:09:25.340Z,100422.00
2023-01-03T02:12:12.033Z,100433.00
2023-01-03T02:15:01.273Z,100427.00
2023-01-03T02:17:44.573Z,100434.00
2023-01-03T02:20:37.947Z,100430.00
2023-01-03T02:24:01.964Z,100431.00
2023-01-03T02:26:49.406Z,100440.00
2023-01-03T02:29:55.441Z,100432.00
2023-01-03T02:32:38.327Z,100437.00
2023-01-03T02:35:17.905Z,100439.00
2023-01-03T02:37:58.383Z,100440.00
2023-01-03T02:40:34.318Z,100439.00
2023-01-03T02:43:09.464Z,100439.00
2023-01-03T02:46:05.148Z,100436.00
2023-01-03T02:48:47.349Z,100443.00
2023-01-03T02:51:23.244Z,100440.00
2023-01-03T02:53:52.543Z,100437.00
2023-01-03T02:56:26.721Z,100432.00
2023-01-03T02:59:00.995Z,100447.00
2023-01-03T03:01:31.475Z,100437.00
2023-01-03T03:04:03.378Z,100448.00
2023-01-03T03:06:43.846Z,100451.00
2023-01-03T03:09:11.739Z,100450.00
2023-01-03T03:12:00.004Z,100446.00
2023-01-03T03:14:35.867Z,100462.00
2023-01-03T03:17:09.652Z,100454.00
2023-01-03T03:19:58.721Z,100459.00
2023-01-03T03:22:52.503Z,100458.00
2023-01-03T03:25:27.488Z,100460.00
2023-01-03T03:28:18.664Z,100465.00
2023-01-03T03:30:53.016Z,100468.00
2023-01-03T03:33:25.433Z,100463.00
2023-01-03T03:36:01.097Z,100476.00
2023-01-03T03:38:35.700Z,100476.00
2023-01-03T03:41:37.233Z,100476.00
2023-01-03T03:44:35.484Z,100473.00
2023-01-03T03:47:14.754Z,100467.00
2023-01-03T03:49:46.826Z,100473.00
2023-01-03T03:52:21.120Z,100476.00
2023-01-03T03:54:57.502Z,100482.00
2023-01-03T03:57:32.165Z,100482.00
2023-01-03T04:00:06.832Z,100483.00
2023-01-03T04:02:42.927Z,100490.00
2023-01-03T04:05:15.120Z,100490.00
2023-01-03T04:07:44.290Z,100493.00
2023-01-03T04:10:13.993Z,100495.00
2023-01-03T04:12:41.931Z,100500.00
2023-01-03T04:15:10.608Z,100499.00
2023-01-03T04:17:38.435Z,100499.00
2023-01-03T04:20:07.408Z,100496.00
2023-01-03T04:22:35.283Z,100503.00
2023-01-03T04:25:05.354Z,100501.00
2023-01-03T04:27:33.562Z,100514.00
2023-01-03T04:30:01.546Z,100507.00
2023-01-03T04:32:29.565Z,100515.00
2023-01-03T04:34:57.519Z,100528.00
2023-01-03T04:37:25.436Z,100522.00
2023-01-03T04:39:53.360Z,100524.00
2023-01-03T04:42:40.452Z,100530.00
2023-01-03T04:45:10.158Z,100530.00
2023-01-03T04:47:38.021Z,100534.00
2023-01-03T04:50:07.898Z,100537.00
2023-01-03T04:52:35.763Z,100512.00
2023-01-03T04:55:03.672Z,100534.00
2023-01-03T04:57:32.855Z,100531.00
2023-01-03T05:00:00.689Z,100529.00
2023-01-03T05:02:28.571Z,100538.00
2023-01-03T05:04:56.457Z,100547.00
2023-01-03T05:07:24.307Z,100551.00
2023-01-03T05:09:52.160Z,100542.00
2023-01-03T05:12:20.348Z,100558.00
2023-01-03T05:14:49.583Z,100553.00
2023-01-03T05:17:20.253Z,100554.00
2023-01-03T05:20:06.241Z,100554.00
2023-01-03T05:22:51.857Z,100558.00
2023-01-03T05:25:38.172Z,100557.00
2023-01-03T05:28:07.917Z,100564.00
2023-01-03T05:30:40.164Z,100557.00
2023-01-03T05:33:08.062Z,100566.00
2023-01-03T05:35:35.982Z,100572.00
2023-01-03T05:38:04.011Z,100576.00
2023-01-03T05:40:37.643Z,100571.00
2023-01-03T05:43:09.104Z,100580.00
2023-01-03T05:45:37.282Z,100572.00
2023-01-03T05:48:08.070Z,100579.00
2023-01-03T05:50:36.237Z,100577.00
2023-01-03T05:53:04.884Z,100575.00
2023-01-03T05:55:32.814Z,100583.00
2023-01-03T05:58:00.696Z,100582.00
2023-01-03T06:00:29.275Z,100588.00
2023-01-03T06:02:57.201Z,100582.00
2023-01-03T06:05:26.768Z,100575.00
2023-01-03T06:07:54.660Z,100591.00
2023-01-03T06:10:22.524Z,100591.00
2023-01-03T06:12:50.568Z,100587.00
2023-01-03T06:15:20.255Z,100590.00
2023-01-03T06:17:58.000Z,100599.00
2023-01-03T06:20:29.141Z,100603.00
2023-01-03T06:22:58.035Z,100607.00
2023-01-03T06:25:26.430Z,100606.00
2023-01-03T06:27:54.258Z,100610.00
2023-01-03T06:30:22.107Z,100619.00
2023-01-03T06:32:49.961Z,100616.00
2023-01-03T06:35:18.036Z,100619.00
2023-01-03T06:37:47.202Z,100620.00
2023-01-03T06:40:15.125Z,100622.00
2023-01-03T06:42:45.821Z,100623.00
2023-01-03T06:45:33.609Z,100617.00
2023-01-03T06:48:23.973Z,100610.00
2023-01-03T06:51:10.491Z,100629.00
2023-01-03T06:53:43.828Z,100625.00
2023-01-03T06:56:12.168Z,100630.00
2023-01-03T06:58:41.870Z,100640.00
2023-01-03T07:01:10.293Z,100632.00
2023-01-03T07:03:38.220Z,100632.00
2023-01-03T07:06:06.469Z,100644.00
2023-01-03T07:08:34.443Z,100642.00
2023-01-03T07:11:03.804Z,100644.00
2023-01-03T07:13:50.845Z,100647.00
2023-01-03T07:16:21.413Z,100647.00
2023-01-03T07:18:54.927Z,100648.00
2023-01-03T07:21:24.484Z,100649.00
2023-01-03T07:23:54.647Z,100646.00
2023-01-03T07:26:25.444Z,100644.00
2023-01-03T07:28:53.696Z,100646.00
2023-01-03T07:31:21.946Z,100655.00
2023-01-03T07:33:50.076Z,100662.00
2023-01-03T07:36:18.379Z,100662.00
2023-01-03T07:38:47.327Z,100657.00
2023-01-03T07:41:16.976Z,100666.00
2023-01-03T07:43:49.096Z,100665.00
2023-01-03T07:46:20.528Z,100671.00
2023-01-03T07:48:51.385Z,100671.00
2023-01-03T07:51:22.653Z,100662.00
2023-01-03T07:53:52.067Z,100685.00
2023-01-03T07:56:23.964Z,100683.00
2023-01-03T07:58:53.536Z,100677.00
2023-01-03T08:01:23.967Z,100676.00
2023-01-03T08:03:53.380Z,100698.00
2023-01-03T08:06:24.133Z,100696.00
2023-01-03T08:09:06.954Z,100703.00
2023-01-03T08:11:52.244Z,100701.00
2023-01-03T08:14:25.745Z,100704.00
2023-01-03T08:16:55.434Z,100694.00
2023-01-03T08:19:23.829Z,100690.00
2023-01-03T08:21:52.027Z,100688.00
2023-01-03T08:24:19.978Z,100693.00
2023-01-03T08:26:48.361Z,100690.00
2023-01-03T08:29:16.522Z,100695.00
2023-01-03T08:31:51.706Z,100692.00
2023-01-03T08:34:27.253Z,100689.00
2023-01-03T08:37:02.737Z,100703.00
2023-01-03T08:39:38.870Z,100700.00
2023-01-03T08:42:10.272Z,100701.00
2023-01-03T08:44:39.602Z,100707.00
2023-01-03T08:47:10.512Z,100712.00
2023-01-03T08:49:39.936Z,100714.00
2023-01-03T08:52:07.898Z,100710.00
2023-01-03T08:54:36.051Z,100717.00
2023-01-03T08:57:03.960Z,100717.00
2023-01-03T08:59:31.836Z,100725.00
2023-01-03T09:02:00.470Z,100728.00
2023-01-03T09:04:29.837Z,100732.00
2023-01-03T09:06:57.761Z,100738.00
2023-01-03T09:09:25.663Z,100733.00
2023-01-03T09:11:53.592Z,100743.00
2023-01-03T09:14:21.587Z,100740.00
2023-01-03T09:16:49.806Z,100748.00
2023-01-03T09:19:18.049Z,100752.00
2023-01-03T09:21:47.223Z,100746.00
2023-01-03T09:24:15.188Z,100743.00
2023-01-03T09:26:43.067Z,100740.00
2023-01-03T09:29:10.958Z,100743.00
2023-01-03T09:31:40.204Z,100744.00
2023-01-03T09:34:08.378Z,100755.00
2023-01-03T09:36:38.349Z,100739.00
2023-01-03T09:39:08.003Z,100736.00
2023-01-03T09:41:36.393Z,100735.00
2023-01-03T09:44:08.760Z,100753.00
2023-01-03T09:46:37.988Z,100756.00
2023-01-03T09:49:08.107Z,100762.00
2023-01-03T09:51:58.736Z,100756.00
2023-01-03T09:54:50.487Z,100743.00
2023-01-03T09:57:42.727Z,100754.00
2023-01-03T10:00:35.282Z,100747.00
2023-01-03T10:03:51.681Z,100756.00
2023-01-03T10:06:36.339Z,100739.00
2023-01-03T10:09:23.169Z,100751.00
2023-01-03T10:12:06.727Z,100751.00
2023-01-03T10:14:56.392Z,100758.00
2023-01-03T10:17:34.564Z,100748.00
2023-01-03T10:20:32.847Z,100746.00
2023-01-03T10:23:01.848Z,100747.00
2023-01-03T10:25:31.011Z,100749.00
2023-01-03T10:28:13.433Z,100745.00
2023-01-03T10:31:07.714Z,100753.00
2023-01-03T10:33:41.354Z,100734.00
2023-01-03T10:36:10.040Z,100732.00
2023-01-03T10:38:49.398Z,100721.00
2023-01-03T10:41:30.769Z,100724.00
2023-01-03T10:44:02.535Z,100725.00
2023-01-03T10:46:31.102Z,100720.00
2023-01-03T10:49:33.492Z,100735.00
2023-01-03T10:52:05.001Z,100734.00
2023-01-03T10:54:49.811Z,100738.00
2023-01-03T10:57:39.172Z,100725.00
2023-01-03T11:00:28.236Z,100731.00
2023-01-03T11:03:02.704Z,100717.00
2023-01-03T11:05:30.795Z,100721.00
2023-01-03T11:08:03.604Z,100729.00
2023-01-03T11:10:42.010Z,100724.00
2023-01-03T11:13:24.646Z,100720.00
2023-01-03T11:15:57.341Z,100718.00
2023-01-03T11:18:28.331Z,100718.00
2023-01-03T11:21:08.888Z,100721.00
2023-01-03T11:24:04.075Z,100714.00
2023-01-03T11:26:46.885Z,100709.00
2023-01-03T11:29:36.807Z,100709.00
2023-01-03T11:32:24.612Z,100701.00
2023-01-03T11:35:23.342Z,100696.00
2023-01-03T11:38:09.171Z,100698.00
2023-01-03T11:40:49.320Z,100704.00
2023-01-03T11:43:40.559Z,100711.00
2023-01-03T11:46:42.659Z,100705.00
2023-01-03T11:49:29.461Z,100706.00
2023-01-03T11:52:16.009Z,100713.00
2023-01-03T11:55:20.292Z,100707.00
2023-01-03T11:58:06.770Z,100712.00
2023-01-03T12:00:44.831Z,100719.00
2023-01-03T12:03:30.754Z,100710.00
2023-01-03T12:06:11.833Z,100715.00
2023-01-03T12:08:54.207Z,100713.00
2023-01-03T12:11:42.279Z,100712.00
2023-01-03T12:14:20.556Z,100716.00
2023-01-03T12:16:55.228Z,100713.00
2023-01-03T12:19:34.567Z,100718.00
2023-01-03T12:22:16.215Z,100698.00
2023-01-03T12:24:52.934Z,100700.00
2023-01-03T12:27:29.142Z,100696.00
2023-01-03T12:30:04.909Z,100697.00
2023-01-03T12:32:43.676Z,100706.00
2023-01-03T12:35:29.318Z,100696.00
2023-01-03T12:38:00.107Z,100700.00
2023-01-03T12:40:40.171Z,100703.00
2023-01-03T12:43:17.653Z,100686.00
2023-01-03T12:45:53.513Z,100692.00
2023-01-03T12:48:54.942Z,100700.00
2023-01-03T12:51:25.609Z,100680.00
2023-01-03T12:54:17.123Z,100687.00
2023-01-03T12:57:12.404Z,100680.00
2023-01-03T13:00:02.426Z,100685.00
2023-01-03T13:02:47.595Z,100689.00
2023-01-03T13:05:25.609Z,100681.00
2023-01-03T13:08:07.219Z,100688.00
2023-01-03T13:10:41.128Z,100685.00
2023-01-03T13:13:16.617Z,100683.00
2023-01-03T13:15:46.228Z,100682.00
2023-01-03T13:18:35.765Z,100670.00
2023-01-03T13:22:00.657Z,100673.00
2023-01-03T13:24:44.019Z,100656.00
2023-01-03T13:27:37.060Z,100677.00
2023-01-03T13:30:21.467Z,100681.00
2023-01-03T13:32:54.347Z,100674.00
2023-01-03T13:35:35.359Z,100676.00
2023-01-03T13:38:28.158Z,100678.00
2023-01-03T13:43:54.153Z,100681.00
2023-01-03T13:46:26.651Z,100685.00
2023-01-03T13:48:59.350Z,100682.00
2023-01-03T13:51:48.365Z,100693.00
2023-01-03T13:55:33.336Z,100688.00
2023-01-03T13:58:01.660Z,100667.00
2023-01-03T14:00:32.216Z,100696.00
2023-01-03T14:04:08.245Z,100695.00
2023-01-03T14:07:18.560Z,100685.00
2023-01-03T14:10:13.165Z,100659.00
2023-01-03T14:13:21.284Z,100667.00
2023-01-03T14:16:01.289Z,100681.00
2023-01-03T14:18:31.508Z,100682.00
2023-01-03T14:21:02.287Z,100685.00
2023-01-03T14:23:58.331Z,100695.00
2023-01-03T14:26:20.525Z,100683.00
2023-01-03T14:28:53.818Z,100682.00
2023-01-03T14:31:26.895Z,100695.00
2023-01-03T14:34:00.158Z,100693.00
2023-01-03T14:36:29.862Z,100690.00
2023-01-03T14:39:00.521Z,100703.00
2023-01-03T14:41:32.616Z,100697.00
2023-01-03T14:44:07.957Z,100704.00
2023-01-03T14:46:37.767Z,100704.00
2023-01-03T14:49:17.255Z,100702.00
2023-01-03T14:51:45.265Z,100702.00
2023-01-03T14:54:19.260Z,100710.00
2023-01-03T14:56:49.376Z,100716.00
2023-01-03T14:59:23.617Z,100708.00
2023-01-03T15:01:52.381Z,100712.00
2023-01-03T15:04:20.603Z,100710.00
2023-01-03T15:07:07.951Z,100705.00
2023-01-03T15:09:39.334Z,100712.00
2023-01-03T15:12:07.836Z,100715.00
2023-01-03T15:14:39.901Z,100720.00
2023-01-03T15:17:16.708Z,100707.00
2023-01-03T15:19:54.072Z,100723.00
2023-01-03T15:22:25.067Z,100718.00
2023-01-03T15:25:04.470Z,100718.00
2023-01-03T15:27:43.026Z,100722.00
2023-01-03T15:30:27.880Z,100728.00
2023-01-03T15:33:04.952Z,100708.00
2023-01-03T15:35:38.564Z,100713.00
2023-01-03T15:38:16.813Z,100723.00
2023-01-03T15:40:47.310Z,100725.00
2023-01-03T15:43:23.185Z,100729.00
2023-01-03T15:46:02.973Z,100736.00
2023-01-03T15:48:35.060Z,100738.00
2023-01-03T15:51:05.894Z,100741.00
2023-01-03T15:53:43.739Z,100750.00
2023-01-03T15:56:19.696Z,100753.00
2023-01-03T15:58:50.618Z,100755.00
2023-01-03T16:01:21.449Z,100758.00
2023-01-03T16:03:51.830Z,100760.00
2023-01-03T16:06:19.815Z,100758.00
2023-01-03T16:08:48.256Z,100761.00
2023-01-03T16:11:28.056Z,100764.00
2023-01-03T16:14:04.758Z,100765.00
2023-01-03T16:16:41.060Z,100760.00
2023-01-03T16:19:18.021Z,100768.00
2023-01-03T16:22:02.522Z,100761.00
2023-01-03T16:24:34.243Z,100766.00
2023-01-03T16:27:12.211Z,100754.00
2023-01-03T16:29:40.076Z,100751.00
2023-01-03T16:32:20.380Z,100756.00
2023-01-03T16:34:49.983Z,100757.00
2023-01-03T16:37:18.131Z,100755.00
2023-01-03T16:39:48.636Z,100758.00
2023-01-03T16:42:16.896Z,100749.00
2023-01-03T16:44:47.364Z,100754.00
2023-01-03T16:47:22.996Z,100759.00
2023-01-03T16:49:57.514Z,100761.00
2023-01-03T16:52:28.856Z,100760.00
2023-01-03T16:54:56.830Z,100758.00
2023-01-03T16:57:24.756Z,100762.00
2023-01-03T16:59:52.672Z,100754.00
2023-01-03T17:02:22.131Z,100759.00
2023-01-03T17:04:50.170Z,100762.00
2023-01-03T17:07:24.228Z,100773.00
2023-01-03T17:09:53.139Z,100770.00
2023-01-03T17:12:24.630Z,100767.00
2023-01-03T17:14:53.080Z,100768.00
2023-01-03T17:17:24.478Z,100778.00
2023-01-03T17:20:07.810Z,100767.00
2023-01-03T17:22:36.222Z,100777.00
2023-01-03T17:25:04.395Z,100771.00
2023-01-03T17:27:33.551Z,100776.00
2023-01-03T17:30:06.081Z,100775.00
2023-01-03T17:32:35.794Z,100772.00
2023-01-03T17:35:04.930Z,100774.00
2023-01-03T17:37:51.582Z,100782.00
2023-01-03T17:40:31.101Z,100781.00
2023-01-03T17:43:01.843Z,100783.00
2023-01-03T17:45:47.702Z,100785.00
2023-01-03T17:48:35.020Z,100782.00
2023-01-03T17:51:03.483Z,100780.00
2023-01-03T17:53:31.507Z,100788.00
2023-01-03T17:55:59.422Z,100787.00
2023-01-03T17:58:33.792Z,100782.00
2023-01-03T18:01:01.958Z,100789.00
2023-01-03T18:03:31.310Z,100790.00
2023-01-03T18:06:04.577Z,100790.00
2023-01-03T18:08:32.940Z,100791.00
2023-01-03T18:11:00.921Z,100797.00
2023-01-03T18:13:34.326Z,100787.00
2023-01-03T18:16:02.581Z,100792.00
2023-01-03T18:18:33.326Z,100795.00
2023-01-03T18:21:01.429Z,100790.00
2023-01-03T18:23:33.050Z,100790.00
2023-01-03T18:26:06.068Z,100791.00
2023-01-03T18:28:34.724Z,100787.00
2023-01-03T18:31:02.711Z,100798.00
2023-01-03T18:33:31.984Z,100784.00
2023-01-03T18:36:01.431Z,100789.00
2023-01-03T18:38:33.019Z,100797.00
2023-01-03T18:41:05.474Z,100790.00
2023-01-03T18:43:34.816Z,100796.00
2023-01-03T18:46:04.667Z,100796.00
2023-01-03T18:48:34.044Z,100799.00
2023-01-03T18:51:01.993Z,100794.00
2023-01-03T18:53:33.874Z,100789.00
2023-01-03T18:56:02.926Z,100783.00
2023-01-03T18:58:36.091Z,100796.00
2023-01-03T19:01:05.004Z,100794.00
2023-01-03T19:03:36.404Z,100796.00
2023-01-03T19:06:16.794Z,100793.00
2023-01-03T19:08:45.210Z,100794.00
2023-01-03T19:11:17.356Z,100802.00
2023-01-03T19:13:54.488Z,100796.00
2023-01-03T19:16:25.599Z,100797.00
2023-01-03T19:18:55.246Z,100800.00
2023-01-03T19:21:24.882Z,100796.00
2023-01-03T19:24:00.954Z,100783.00
2023-01-03T19:26:34.015Z,100783.00
2023-01-03T19:29:06.349Z,100782.00
2023-01-03T19:31:42.951Z,100786.00
2023-01-03T19:34:21.487Z,100787.00
2023-01-03T19:36:50.494Z,100786.00
2023-01-03T19:39:25.227Z,100786.00
2023-01-03T19:42:14.961Z,100782.00
2023-01-03T19:44:43.670Z,100777.00
2023-01-03T19:47:15.691Z,100770.00
2023-01-03T19:49:48.090Z,100773.00
2023-01-03T19:52:16.673Z,100780.00
2023-01-03T19:54:45.123Z,100775.00
2023-01-03T19:57:22.436Z,100781.00
2023-01-03T19:59:55.556Z,100783.00
2023-01-03T20:02:39.310Z,100783.00
2023-01-03T20:05:21.501Z,100777.00
2023-01-03T20:07:51.033Z,100784.00
2023-01-03T20:10:22.356Z,100778.00
2023-01-03T20:12:53.990Z,100772.00
2023-01-03T20:15:26.083Z,100771.00
2023-01-03T20:17:55.072Z,100774.00
2023-01-03T20:20:31.215Z,100763.00
2023-01-03T20:23:06.322Z,100767.00
2023-01-03T20:25:36.885Z,100762.00
2023-01-03T20:28:05.927Z,100750.00
2023-01-03T20:30:35.529Z,100767.00
2023-01-03T20:33:03.441Z,100757.00
2023-01-03T20:38:25.242Z,100761.00
2023-01-03T20:40:54.066Z,100762.00
2023-01-03T20:43:22.344Z,100753.00
2023-01-03T20:45:55.560Z,100752.00
2023-01-03T20:48:26.363Z,100744.00
2023-01-03T20:50:56.170Z,100745.00
2023-01-03T20:53:27.068Z,100745.00
2023-01-03T20:55:55.095Z,100754.00
2023-01-03T20:58:26.003Z,100754.00
2023-01-03T21:01:01.632Z,100749.00
2023-01-03T21:03:31.872Z,100745.00
2023-01-03T21:06:01.346Z,100751.00
2023-01-03T21:08:47.143Z,100747.00
2023-01-03T21:11:15.052Z,100748.00
2023-01-03T21:13:43.679Z,100749.00
2023-01-03T21:16:26.926Z,100739.00
2023-01-03T21:18:55.123Z,100756.00
2023-01-03T21:21:25.074Z,100744.00
2023-01-03T21:23:54.190Z,100738.00
2023-01-03T21:26:22.686Z,100739.00
2023-01-03T21:28:50.532Z,100743.00
2023-01-03T21:31:22.236Z,100738.00
2023-01-03T21:33:51.660Z,100741.00
2023-01-03T21:36:27.343Z,100734.00
2023-01-03T21:38:56.571Z,100737.00
2023-01-03T21:41:28.726Z,100724.00
2023-01-03T21:43:57.895Z,100736.00
2023-01-03T21:46:27.645Z,100729.00
2023-01-03T21:48:55.956Z,100737.00
2023-01-03T21:51:39.363Z,100731.00
2023-01-03T21:54:08.617Z,100720.00
2023-01-03T21:56:44.829Z,100723.00
2023-01-03T21:59:13.662Z,100720.00
2023-01-03T22:01:55.674Z,100713.00
2023-01-03T22:04:23.708Z,100702.00
2023-01-03T22:07:00.261Z,100703.00
2023-01-03T22:09:46.231Z,100713.00
2023-01-03T22:12:15.823Z,100711.00
2023-01-03T22:14:44.901Z,100715.00
2023-01-03T22:17:16.060Z,100710.00
2023-01-03T22:19:44.218Z,100713.00
2023-01-03T22:22:13.542Z,100716.00
2023-01-03T22:24:41.430Z,100713.00
2023-01-03T22:27:09.433Z,100717.00
2023-01-03T22:29:37.324Z,100705.00
2023-01-03T22:32:06.079Z,100701.00
2023-01-03T22:34:33.990Z,100695.00
2023-01-03T22:37:01.853Z,100696.00
2023-01-03T22:39:31.030Z,100703.00
2023-01-03T22:41:58.943Z,100699.00
2023-01-03T22:44:26.807Z,100691.00
2023-01-03T22:46:54.748Z,100690.00
2023-01-03T22:49:22.595Z,100693.00
2023-01-03T22:51:50.584Z,100696.00
2023-01-03T22:54:18.472Z,100692.00
2023-01-03T22:56:47.712Z,100690.00
2023-01-03T22:59:15.964Z,100697.00
2023-01-03T23:01:44.091Z,100685.00
2023-01-03T23:04:13.053Z,100692.00
2023-01-03T23:06:41.078Z,100681.00
2023-01-03T23:09:09.087Z,100683.00
2023-01-03T23:11:55.897Z,100690.00
2023-01-03T23:14:27.603Z,100686.00
2023-01-03T23:16:56.526Z,100687.00
2023-01-03T23:19:27.252Z,100673.00
2023-01-03T23:21:58.038Z,100681.00
2023-01-03T23:24:25.993Z,100669.00
2023-01-03T23:26:54.516Z,100669.00
2023-01-03T23:29:22.703Z,100657.00
2023-01-03T23:31:52.644Z,100652.00
2023-01-03T23:34:20.675Z,100647.00
2023-01-03T23:36:49.133Z,100652.00
2023-01-03T23:39:19.157Z,100657.00
2023-01-03T23:41:47.775Z,100651.00
2023-01-03T23:44:16.077Z,100633.00
2023-01-03T23:46:43.996Z,100637.00
2023-01-03T23:49:13.698Z,100646.00
2023-01-03T23:51:41.576Z,100647.00
2023-01-03T23:54:09.944Z,100644.00
2023-01-03T23:56:38.370Z,100634.00
2023-01-03T23:59:06.556Z,100630.00
